Terminal Aerodrome Forecast
Issued by NWS

Current Version | Previous Version | Text Only | Print | Product List | Glossary Off
Versions: 1 2 3 4 5 6 7 8 9 10 11 12 13 14 15 16 17 18 19 20 21 22 23 24 25 26 27

146
FTUS41 KRLX 181732
TAFCKB
TAF
KCKB 181732Z 1818/1918 20008KT P6SM OVC050
     FM182000 20012G20KT P6SM OVC040
      TEMPO 1900/1902 4SM SHRA OVC025
     FM190200 20014G24KT P6SM OVC045
      TEMPO 1902/1903 2SM SHRA OVC025
     FM190300 20015G26KT 4SM SHRA OVC035
     FM190500 21014G24KT P6SM SHRA OVC015
     FM190600 29018G31KT P6SM OVC015
     FM190800 27015G26KT P6SM SHRA OVC015
     FM191100 27014G24KT P6SM OVC015
     FM191200 28014G24KT P6SM OVC020=

USA.gov is the U.S. government's official web portal to all federal, state and local government web resources and services.